sensor_id;sensor_type;location;lat;lon;timestamp;temperature;humidity
17813;DHT22;9030;50.792;8.320;2023-09-19T00:00:16;14.50;99.90
17813;DHT22;9030;50.792;8.320;2023-09-19T00:02:45;14.50;99.90
17813;DHT22;9030;50.792;8.320;2023-09-19T00:05:14;14.40;99.90
17813;DHT22;9030;50.792;8.320;2023-09-19T00:07:40;14.40;99.90
17813;DHT22;9030;50.792;8.320;2023-09-19T00:10:07;14.40;99.90
17813;DHT22;9030;50.792;8.320;2023-09-19T00:12:35;14.40;99.90
17813;DHT22;9030;50.792;8.320;2023-09-19T00:15:02;14.40;99.90
17813;DHT22;9030;50.792;8.320;2023-09-19T00:17:30;14.40;99.90
17813;DHT22;9030;50.792;8.320;2023-09-19T00:19:57;14.30;99.90
17813;DHT22;9030;50.792;8.320;2023-09-19T00:22:25;14.40;99.90
17813;DHT22;9030;50.792;8.320;2023-09-19T00:24:52;14.30;99.90
17813;DHT22;9030;50.792;8.320;2023-09-19T00:27:20;14.30;99.90
17813;DHT22;9030;50.792;8.320;2023-09-19T00:29:47;14.30;99.90
17813;DHT22;9030;50.792;8.320;2023-09-19T00:32:14;14.30;99.90
17813;DHT22;9030;50.792;8.320;2023-09-19T00:34:40;14.30;99.90
17813;DHT22;9030;50.792;8.320;2023-09-19T00:37:08;14.30;99.90
17813;DHT22;9030;50.792;8.320;2023-09-19T00:39:38;14.20;99.90
17813;DHT22;9030;50.792;8.320;2023-09-19T00:42:06;14.10;99.90
17813;DHT22;9030;50.792;8.320;2023-09-19T00:44:33;14.10;99.90
17813;DHT22;9030;50.792;8.320;2023-09-19T00:47:02;14.10;99.90
17813;DHT22;9030;50.792;8.320;2023-09-19T00:49:29;14.10;99.90
17813;DHT22;9030;50.792;8.320;2023-09-19T00:51:59;14.00;99.90
17813;DHT22;9030;50.792;8.320;2023-09-19T00:54:26;14.00;99.90
17813;DHT22;9030;50.792;8.320;2023-09-19T00:56:56;14.00;99.90
17813;DHT22;9030;50.792;8.320;2023-09-19T00:59:23;13.90;99.90
17813;DHT22;9030;50.792;8.320;2023-09-19T01:01:50;13.90;99.90
17813;DHT22;9030;50.792;8.320;2023-09-19T01:04:19;13.70;99.90
17813;DHT22;9030;50.792;8.320;2023-09-19T01:06:46;13.70;99.90
17813;DHT22;9030;50.792;8.320;2023-09-19T01:09:15;13.60;99.90
17813;DHT22;9030;50.792;8.320;2023-09-19T01:11:43;13.50;99.90
17813;DHT22;9030;50.792;8.320;2023-09-19T01:14:23;13.50;99.90
17813;DHT22;9030;50.792;8.320;2023-09-19T01:17:04;13.40;99.90
17813;DHT22;9030;50.792;8.320;2023-09-19T01:20:03;13.40;99.90
17813;DHT22;9030;50.792;8.320;2023-09-19T01:22:41;13.30;99.90
17813;DHT22;9030;50.792;8.320;2023-09-19T01:25:45;13.30;99.90
17813;DHT22;9030;50.792;8.320;2023-09-19T01:28:34;13.20;99.90
17813;DHT22;9030;50.792;8.320;2023-09-19T01:31:10;13.20;99.90
17813;DHT22;9030;50.792;8.320;2023-09-19T01:33:57;13.20;99.90
17813;DHT22;9030;50.792;8.320;2023-09-19T01:36:25;13.10;99.90
17813;DHT22;9030;50.792;8.320;2023-09-19T01:38:53;13.10;99.90
17813;DHT22;9030;50.792;8.320;2023-09-19T01:41:26;13.00;99.90
17813;DHT22;9030;50.792;8.320;2023-09-19T01:43:56;13.00;99.90
17813;DHT22;9030;50.792;8.320;2023-09-19T01:46:32;13.00;99.90
17813;DHT22;9030;50.792;8.320;2023-09-19T01:49:10;13.00;99.90
17813;DHT22;9030;50.792;8.320;2023-09-19T01:51:45;13.00;99.90
17813;DHT22;9030;50.792;8.320;2023-09-19T01:54:20;12.90;99.90
17813;DHT22;9030;50.792;8.320;2023-09-19T01:56:53;12.80;99.90
17813;DHT22;9030;50.792;8.320;2023-09-19T01:59:25;12.80;99.90
17813;DHT22;9030;50.792;8.320;2023-09-19T02:01:58;12.70;99.90
17813;DHT22;9030;50.792;8.320;2023-09-19T02:04:25;12.70;99.90
17813;DHT22;9030;50.792;8.320;2023-09-19T02:06:53;12.70;99.90
17813;DHT22;9030;50.792;8.320;2023-09-19T02:09:19;12.60;99.90
17813;DHT22;9030;50.792;8.320;2023-09-19T02:11:46;12.70;99.90
17813;DHT22;9030;50.792;8.320;2023-09-19T02:14:12;12.70;99.90
17813;DHT22;9030;50.792;8.320;2023-09-19T02:16:40;12.70;99.90
17813;DHT22;9030;50.792;8.320;2023-09-19T02:19:08;12.70;99.90
17813;DHT22;9030;50.792;8.320;2023-09-19T02:21:35;12.70;99.90
17813;DHT22;9030;50.792;8.320;2023-09-19T02:24:01;12.80;99.90
17813;DHT22;9030;50.792;8.320;2023-09-19T02:26:29;12.80;99.90
17813;DHT22;9030;50.792;8.320;2023-09-19T02:28:55;12.80;99.90
17813;DHT22;9030;50.792;8.320;2023-09-19T02:31:22;12.80;99.90
17813;DHT22;9030;50.792;8.320;2023-09-19T02:33:49;12.80;99.90
17813;DHT22;9030;50.792;8.320;2023-09-19T02:36:16;12.90;99.90
17813;DHT22;9030;50.792;8.320;2023-09-19T02:38:44;12.90;99.90
17813;DHT22;9030;50.792;8.320;2023-09-19T02:41:11;13.00;99.90
17813;DHT22;9030;50.792;8.320;2023-09-19T02:43:37;13.00;99.90
17813;DHT22;9030;50.792;8.320;2023-09-19T02:46:04;13.10;99.90
17813;DHT22;9030;50.792;8.320;2023-09-19T02:48:31;13.10;99.90
17813;DHT22;9030;50.792;8.320;2023-09-19T02:50:59;13.10;99.90
17813;DHT22;9030;50.792;8.320;2023-09-19T02:53:28;13.20;99.90
17813;DHT22;9030;50.792;8.320;2023-09-19T02:55:56;13.30;99.90
17813;DHT22;9030;50.792;8.320;2023-09-19T02:58:23;13.30;99.90
17813;DHT22;9030;50.792;8.320;2023-09-19T03:00:50;13.30;99.90
17813;DHT22;9030;50.792;8.320;2023-09-19T03:03:17;13.30;99.90
17813;DHT22;9030;50.792;8.320;2023-09-19T03:05:44;13.20;99.90
17813;DHT22;9030;50.792;8.320;2023-09-19T03:08:12;13.20;99.90
17813;DHT22;9030;50.792;8.320;2023-09-19T03:10:46;13.20;99.90
17813;DHT22;9030;50.792;8.320;2023-09-19T03:13:13;13.20;99.90
17813;DHT22;9030;50.792;8.320;2023-09-19T03:15:41;13.20;99.90
17813;DHT22;9030;50.792;8.320;2023-09-19T03:18:09;13.30;99.90
17813;DHT22;9030;50.792;8.320;2023-09-19T03:20:35;13.30;99.90
17813;DHT22;9030;50.792;8.320;2023-09-19T03:23:04;13.40;99.90
17813;DHT22;9030;50.792;8.320;2023-09-19T03:25:31;13.40;99.90
17813;DHT22;9030;50.792;8.320;2023-09-19T03:27:59;13.40;99.90
17813;DHT22;9030;50.792;8.320;2023-09-19T03:30:26;13.40;99.90
17813;DHT22;9030;50.792;8.320;2023-09-19T03:32:53;13.40;99.90
17813;DHT22;9030;50.792;8.320;2023-09-19T03:35:20;13.50;99.90
17813;DHT22;9030;50.792;8.320;2023-09-19T03:37:46;13.50;99.90
17813;DHT22;9030;50.792;8.320;2023-09-19T03:40:13;13.50;99.90
17813;DHT22;9030;50.792;8.320;2023-09-19T03:42:41;13.50;99.90
17813;DHT22;9030;50.792;8.320;2023-09-19T03:45:10;13.50;99.90
17813;DHT22;9030;50.792;8.320;2023-09-19T03:47:38;13.50;99.90
17813;DHT22;9030;50.792;8.320;2023-09-19T03:50:05;13.50;99.90
17813;DHT22;9030;50.792;8.320;2023-09-19T03:52:33;13.50;99.90
17813;DHT22;9030;50.792;8.320;2023-09-19T03:55:00;13.50;99.90
17813;DHT22;9030;50.792;8.320;2023-09-19T03:57:27;13.40;99.90
17813;DHT22;9030;50.792;8.320;2023-09-19T03:59:54;13.30;99.90
17813;DHT22;9030;50.792;8.320;2023-09-19T04:02:22;13.30;99.90
17813;DHT22;9030;50.792;8.320;2023-09-19T04:04:50;13.20;99.90
17813;DHT22;9030;50.792;8.320;2023-09-19T04:07:17;13.20;99.90
17813;DHT22;9030;50.792;8.320;2023-09-19T04:09:44;13.20;99.90
17813;DHT22;9030;50.792;8.320;2023-09-19T04:12:11;13.10;99.90
17813;DHT22;9030;50.792;8.320;2023-09-19T04:14:38;13.00;99.90
17813;DHT22;9030;50.792;8.320;2023-09-19T04:17:04;13.00;99.90
17813;DHT22;9030;50.792;8.320;2023-09-19T04:19:32;13.00;99.90
17813;DHT22;9030;50.792;8.320;2023-09-19T04:21:59;12.90;99.90
17813;DHT22;9030;50.792;8.320;2023-09-19T04:24:26;12.90;99.90
17813;DHT22;9030;50.792;8.320;2023-09-19T04:26:53;12.80;99.90
17813;DHT22;9030;50.792;8.320;2023-09-19T04:29:19;12.70;99.90
17813;DHT22;9030;50.792;8.320;2023-09-19T04:31:46;12.70;99.90
17813;DHT22;9030;50.792;8.320;2023-09-19T04:34:13;12.60;99.90
17813;DHT22;9030;50.792;8.320;2023-09-19T04:36:43;12.50;99.90
17813;DHT22;9030;50.792;8.320;2023-09-19T04:39:10;12.60;99.90
17813;DHT22;9030;50.792;8.320;2023-09-19T04:41:38;12.60;99.90
17813;DHT22;9030;50.792;8.320;2023-09-19T04:44:07;12.50;99.90
17813;DHT22;9030;50.792;8.320;2023-09-19T04:46:34;12.50;99.90
17813;DHT22;9030;50.792;8.320;2023-09-19T04:49:00;12.50;99.90
17813;DHT22;9030;50.792;8.320;2023-09-19T04:51:28;12.50;99.90
17813;DHT22;9030;50.792;8.320;2023-09-19T04:54:01;12.60;99.90
17813;DHT22;9030;50.792;8.320;2023-09-19T04:56:27;12.60;99.90
17813;DHT22;9030;50.792;8.320;2023-09-19T04:58:54;12.60;99.90
17813;DHT22;9030;50.792;8.320;2023-09-19T05:01:20;12.60;99.90
17813;DHT22;9030;50.792;8.320;2023-09-19T05:03:48;12.60;99.90
17813;DHT22;9030;50.792;8.320;2023-09-19T05:06:17;12.60;99.90
17813;DHT22;9030;50.792;8.320;2023-09-19T05:08:45;12.60;99.90
17813;DHT22;9030;50.792;8.320;2023-09-19T05:11:14;12.50;99.90
17813;DHT22;9030;50.792;8.320;2023-09-19T05:13:40;12.50;99.90
17813;DHT22;9030;50.792;8.320;2023-09-19T05:16:08;12.50;99.90
17813;DHT22;9030;50.792;8.320;2023-09-19T05:18:35;12.40;99.90
17813;DHT22;9030;50.792;8.320;2023-09-19T05:21:02;12.40;99.90
17813;DHT22;9030;50.792;8.320;2023-09-19T05:23:29;12.40;99.90
17813;DHT22;9030;50.792;8.320;2023-09-19T05:25:56;12.30;99.90
17813;DHT22;9030;50.792;8.320;2023-09-19T05:28:26;12.30;99.90
17813;DHT22;9030;50.792;8.320;2023-09-19T05:30:53;12.30;99.90
17813;DHT22;9030;50.792;8.320;2023-09-19T05:33:20;12.20;99.90
17813;DHT22;9030;50.792;8.320;2023-09-19T05:35:48;12.20;99.90
17813;DHT22;9030;50.792;8.320;2023-09-19T05:38:15;12.20;99.90
17813;DHT22;9030;50.792;8.320;2023-09-19T05:40:45;12.20;99.90
17813;DHT22;9030;50.792;8.320;2023-09-19T05:43:11;12.20;99.90
17813;DHT22;9030;50.792;8.320;2023-09-19T05:45:40;12.20;99.90
17813;DHT22;9030;50.792;8.320;2023-09-19T05:48:09;12.20;99.90
17813;DHT22;9030;50.792;8.320;2023-09-19T05:50:37;12.30;99.90
17813;DHT22;9030;50.792;8.320;2023-09-19T05:53:03;12.30;99.90
17813;DHT22;9030;50.792;8.320;2023-09-19T05:55:30;12.30;99.90
17813;DHT22;9030;50.792;8.320;2023-09-19T05:57:57;12.30;99.90
17813;DHT22;9030;50.792;8.320;2023-09-19T06:00:25;12.40;99.90
17813;DHT22;9030;50.792;8.320;2023-09-19T06:02:55;12.40;99.90
17813;DHT22;9030;50.792;8.320;2023-09-19T06:05:24;12.40;99.90
17813;DHT22;9030;50.792;8.320;2023-09-19T06:07:52;12.50;99.90
17813;DHT22;9030;50.792;8.320;2023-09-19T06:10:19;12.50;99.90
17813;DHT22;9030;50.792;8.320;2023-09-19T06:12:46;12.50;99.90
17813;DHT22;9030;50.792;8.320;2023-09-19T06:15:14;12.60;99.90
17813;DHT22;9030;50.792;8.320;2023-09-19T06:17:42;12.60;99.90
17813;DHT22;9030;50.792;8.320;2023-09-19T06:20:11;12.60;99.90
17813;DHT22;9030;50.792;8.320;2023-09-19T06:22:40;12.70;99.90
17813;DHT22;9030;50.792;8.320;2023-09-19T06:25:08;12.70;99.90
17813;DHT22;9030;50.792;8.320;2023-09-19T06:27:36;12.80;99.90
17813;DHT22;9030;50.792;8.320;2023-09-19T06:30:04;12.80;99.90
17813;DHT22;9030;50.792;8.320;2023-09-19T06:32:32;12.90;99.90
17813;DHT22;9030;50.792;8.320;2023-09-19T06:34:58;13.00;99.90
17813;DHT22;9030;50.792;8.320;2023-09-19T06:37:28;13.00;99.90
17813;DHT22;9030;50.792;8.320;2023-09-19T06:39:55;13.10;99.90
17813;DHT22;9030;50.792;8.320;2023-09-19T06:42:22;13.10;99.90
17813;DHT22;9030;50.792;8.320;2023-09-19T06:44:49;13.10;99.90
17813;DHT22;9030;50.792;8.320;2023-09-19T06:47:15;13.20;99.90
17813;DHT22;9030;50.792;8.320;2023-09-19T06:49:42;13.20;99.90
17813;DHT22;9030;50.792;8.320;2023-09-19T06:52:09;13.40;99.90
17813;DHT22;9030;50.792;8.320;2023-09-19T06:54:37;13.40;99.90
17813;DHT22;9030;50.792;8.320;2023-09-19T06:57:05;13.50;99.90
17813;DHT22;9030;50.792;8.320;2023-09-19T06:59:35;13.60;99.90
17813;DHT22;9030;50.792;8.320;2023-09-19T07:02:02;13.70;99.90
17813;DHT22;9030;50.792;8.320;2023-09-19T07:04:31;13.70;99.90
17813;DHT22;9030;50.792;8.320;2023-09-19T07:06:58;13.80;99.90
17813;DHT22;9030;50.792;8.320;2023-09-19T07:09:24;13.80;99.90
17813;DHT22;9030;50.792;8.320;2023-09-19T07:11:54;14.00;99.90
17813;DHT22;9030;50.792;8.320;2023-09-19T07:14:20;14.10;99.90
17813;DHT22;9030;50.792;8.320;2023-09-19T07:16:47;14.20;99.90
17813;DHT22;9030;50.792;8.320;2023-09-19T07:19:15;14.20;99.90
17813;DHT22;9030;50.792;8.320;2023-09-19T07:21:41;14.20;99.90
17813;DHT22;9030;50.792;8.320;2023-09-19T07:24:08;14.30;99.90
17813;DHT22;9030;50.792;8.320;2023-09-19T07:26:35;14.40;99.90
17813;DHT22;9030;50.792;8.320;2023-09-19T07:29:03;14.50;99.90
17813;DHT22;9030;50.792;8.320;2023-09-19T07:31:32;14.60;99.90
17813;DHT22;9030;50.792;8.320;2023-09-19T07:33:59;14.70;99.90
17813;DHT22;9030;50.792;8.320;2023-09-19T07:36:25;14.80;99.90
17813;DHT22;9030;50.792;8.320;2023-09-19T07:38:55;14.90;99.90
17813;DHT22;9030;50.792;8.320;2023-09-19T07:41:23;15.00;99.90
17813;DHT22;9030;50.792;8.320;2023-09-19T07:43:50;15.20;99.90
17813;DHT22;9030;50.792;8.320;2023-09-19T07:46:18;15.20;99.90
17813;DHT22;9030;50.792;8.320;2023-09-19T07:48:46;15.30;99.90
17813;DHT22;9030;50.792;8.320;2023-09-19T07:51:14;15.30;99.90
17813;DHT22;9030;50.792;8.320;2023-09-19T07:53:41;15.30;99.90
17813;DHT22;9030;50.792;8.320;2023-09-19T07:56:09;15.40;99.90
17813;DHT22;9030;50.792;8.320;2023-09-19T07:58:39;15.50;99.90
17813;DHT22;9030;50.792;8.320;2023-09-19T08:01:10;15.60;99.90
17813;DHT22;9030;50.792;8.320;2023-09-19T08:03:40;15.70;99.90
17813;DHT22;9030;50.792;8.320;2023-09-19T08:06:09;15.80;99.90
17813;DHT22;9030;50.792;8.320;2023-09-19T08:08:36;15.80;99.90
17813;DHT22;9030;50.792;8.320;2023-09-19T08:11:03;15.80;99.90
17813;DHT22;9030;50.792;8.320;2023-09-19T08:13:36;15.80;99.90
17813;DHT22;9030;50.792;8.320;2023-09-19T08:16:03;15.90;99.90
17813;DHT22;9030;50.792;8.320;2023-09-19T08:18:30;15.90;99.90
17813;DHT22;9030;50.792;8.320;2023-09-19T08:20:58;15.90;99.90
17813;DHT22;9030;50.792;8.320;2023-09-19T08:23:26;16.00;99.90
17813;DHT22;9030;50.792;8.320;2023-09-19T08:25:56;15.90;99.90
17813;DHT22;9030;50.792;8.320;2023-09-19T08:28:22;15.80;99.90
17813;DHT22;9030;50.792;8.320;2023-09-19T08:30:49;15.90;99.90
17813;DHT22;9030;50.792;8.320;2023-09-19T08:33:16;15.80;99.90
17813;DHT22;9030;50.792;8.320;2023-09-19T08:35:43;15.80;99.90
17813;DHT22;9030;50.792;8.320;2023-09-19T08:38:12;15.90;99.90
17813;DHT22;9030;50.792;8.320;2023-09-19T08:40:39;15.90;99.90
17813;DHT22;9030;50.792;8.320;2023-09-19T08:43:07;15.70;99.90
17813;DHT22;9030;50.792;8.320;2023-09-19T08:45:34;15.60;99.90
17813;DHT22;9030;50.792;8.320;2023-09-19T08:48:22;15.80;99.90
17813;DHT22;9030;50.792;8.320;2023-09-19T08:50:51;16.00;99.90
17813;DHT22;9030;50.792;8.320;2023-09-19T08:53:31;16.10;99.90
17813;DHT22;9030;50.792;8.320;2023-09-19T08:56:00;16.40;99.90
17813;DHT22;9030;50.792;8.320;2023-09-19T08:58:31;16.30;99.90
17813;DHT22;9030;50.792;8.320;2023-09-19T09:01:01;16.50;99.90
17813;DHT22;9030;50.792;8.320;2023-09-19T09:03:33;16.50;99.90
17813;DHT22;9030;50.792;8.320;2023-09-19T09:06:00;16.20;99.90
17813;DHT22;9030;50.792;8.320;2023-09-19T09:08:30;16.30;99.90
17813;DHT22;9030;50.792;8.320;2023-09-19T09:10:56;16.30;99.90
17813;DHT22;9030;50.792;8.320;2023-09-19T09:13:24;16.30;99.90
17813;DHT22;9030;50.792;8.320;2023-09-19T09:15:51;16.40;99.90
17813;DHT22;9030;50.792;8.320;2023-09-19T09:18:21;16.30;99.90
17813;DHT22;9030;50.792;8.320;2023-09-19T09:20:48;16.50;99.90
17813;DHT22;9030;50.792;8.320;2023-09-19T09:23:14;16.50;99.90
17813;DHT22;9030;50.792;8.320;2023-09-19T09:25:50;16.70;99.90
17813;DHT22;9030;50.792;8.320;2023-09-19T09:28:21;16.70;99.90
17813;DHT22;9030;50.792;8.320;2023-09-19T09:30:48;16.80;99.90
17813;DHT22;9030;50.792;8.320;2023-09-19T09:33:15;16.90;99.90
17813;DHT22;9030;50.792;8.320;2023-09-19T09:35:50;16.80;99.90
17813;DHT22;9030;50.792;8.320;2023-09-19T09:38:22;16.80;99.90
17813;DHT22;9030;50.792;8.320;2023-09-19T09:40:55;16.90;99.90
17813;DHT22;9030;50.792;8.320;2023-09-19T09:43:28;16.80;99.90
17813;DHT22;9030;50.792;8.320;2023-09-19T09:46:12;16.60;99.90
17813;DHT22;9030;50.792;8.320;2023-09-19T09:48:56;16.50;99.90
17813;DHT22;9030;50.792;8.320;2023-09-19T09:51:59;16.70;99.90
17813;DHT22;9030;50.792;8.320;2023-09-19T09:54:28;16.70;99.90
17813;DHT22;9030;50.792;8.320;2023-09-19T09:57:02;16.90;99.90
17813;DHT22;9030;50.792;8.320;2023-09-19T09:59:46;17.20;99.90
17813;DHT22;9030;50.792;8.320;2023-09-19T10:02:13;17.30;99.90
17813;DHT22;9030;50.792;8.320;2023-09-19T10:04:42;17.20;99.90
17813;DHT22;9030;50.792;8.320;2023-09-19T10:07:26;17.30;99.90
17813;DHT22;9030;50.792;8.320;2023-09-19T10:09:57;17.50;99.90
17813;DHT22;9030;50.792;8.320;2023-09-19T10:12:31;17.70;99.90
17813;DHT22;9030;50.792;8.320;2023-09-19T10:15:00;17.80;99.90
17813;DHT22;9030;50.792;8.320;2023-09-19T10:17:29;17.80;99.90
17813;DHT22;9030;50.792;8.320;2023-09-19T10:19:58;18.00;99.90
17813;DHT22;9030;50.792;8.320;2023-09-19T10:22:34;17.90;99.90
17813;DHT22;9030;50.792;8.320;2023-09-19T10:25:02;17.90;99.90
17813;DHT22;9030;50.792;8.320;2023-09-19T10:27:32;18.20;99.90
17813;DHT22;9030;50.792;8.320;2023-09-19T10:30:05;17.80;99.90
17813;DHT22;9030;50.792;8.320;2023-09-19T10:32:35;17.50;99.90
17813;DHT22;9030;50.792;8.320;2023-09-19T10:35:02;17.30;99.90
17813;DHT22;9030;50.792;8.320;2023-09-19T10:37:34;17.40;99.90
17813;DHT22;9030;50.792;8.320;2023-09-19T10:40:04;17.40;99.90
17813;DHT22;9030;50.792;8.320;2023-09-19T10:42:38;17.70;99.90
17813;DHT22;9030;50.792;8.320;2023-09-19T10:45:06;17.90;99.90
17813;DHT22;9030;50.792;8.320;2023-09-19T10:47:38;18.10;99.90
17813;DHT22;9030;50.792;8.320;2023-09-19T10:50:06;18.50;99.90
17813;DHT22;9030;50.792;8.320;2023-09-19T10:52:41;18.50;99.90
17813;DHT22;9030;50.792;8.320;2023-09-19T10:55:08;18.10;99.90
17813;DHT22;9030;50.792;8.320;2023-09-19T10:57:36;18.40;99.90
17813;DHT22;9030;50.792;8.320;2023-09-19T11:00:05;18.40;99.90
17813;DHT22;9030;50.792;8.320;2023-09-19T11:03:17;18.50;99.90
17813;DHT22;9030;50.792;8.320;2023-09-19T11:06:09;18.90;99.90
17813;DHT22;9030;50.792;8.320;2023-09-19T11:08:54;18.80;99.90
17813;DHT22;9030;50.792;8.320;2023-09-19T11:11:42;19.20;99.90
17813;DHT22;9030;50.792;8.320;2023-09-19T11:14:15;18.70;99.90
17813;DHT22;9030;50.792;8.320;2023-09-19T11:17:29;18.90;99.90
17813;DHT22;9030;50.792;8.320;2023-09-19T11:20:18;19.00;99.90
17813;DHT22;9030;50.792;8.320;2023-09-19T11:26:03;19.10;99.90
17813;DHT22;9030;50.792;8.320;2023-09-19T11:28:33;19.00;99.90
17813;DHT22;9030;50.792;8.320;2023-09-19T11:37:02;19.80;99.90
17813;DHT22;9030;50.792;8.320;2023-09-19T11:39:30;19.50;99.90
17813;DHT22;9030;50.792;8.320;2023-09-19T11:41:57;19.00;99.90
17813;DHT22;9030;50.792;8.320;2023-09-19T11:44:34;19.00;99.90
17813;DHT22;9030;50.792;8.320;2023-09-19T11:47:04;18.50;99.90
17813;DHT22;9030;50.792;8.320;2023-09-19T11:49:32;18.30;99.90
17813;DHT22;9030;50.792;8.320;2023-09-19T11:52:00;18.20;99.90
17813;DHT22;9030;50.792;8.320;2023-09-19T11:54:30;18.20;99.90
17813;DHT22;9030;50.792;8.320;2023-09-19T11:56:59;17.90;99.90
17813;DHT22;9030;50.792;8.320;2023-09-19T11:59:28;18.30;99.90
17813;DHT22;9030;50.792;8.320;2023-09-19T12:01:56;18.60;99.90
17813;DHT22;9030;50.792;8.320;2023-09-19T12:04:39;18.30;99.90
17813;DHT22;9030;50.792;8.320;2023-09-19T12:07:07;18.20;99.90
17813;DHT22;9030;50.792;8.320;2023-09-19T12:09:38;18.70;99.90
17813;DHT22;9030;50.792;8.320;2023-09-19T12:12:07;18.90;99.90
17813;DHT22;9030;50.792;8.320;2023-09-19T12:14:34;18.30;99.90
17813;DHT22;9030;50.792;8.320;2023-09-19T12:17:01;18.00;99.90
17813;DHT22;9030;50.792;8.320;2023-09-19T12:19:29;18.00;99.90
17813;DHT22;9030;50.792;8.320;2023-09-19T12:21:59;18.20;99.90
17813;DHT22;9030;50.792;8.320;2023-09-19T12:24:30;18.50;99.90
17813;DHT22;9030;50.792;8.320;2023-09-19T12:27:01;18.60;99.90
17813;DHT22;9030;50.792;8.320;2023-09-19T12:29:32;18.70;99.90
17813;DHT22;9030;50.792;8.320;2023-09-19T12:32:00;18.60;99.90
17813;DHT22;9030;50.792;8.320;2023-09-19T12:34:30;18.50;99.90
17813;DHT22;9030;50.792;8.320;2023-09-19T12:37:10;18.60;99.90
17813;DHT22;9030;50.792;8.320;2023-09-19T12:39:46;19.10;99.90
17813;DHT22;9030;50.792;8.320;2023-09-19T12:42:17;19.10;99.90
17813;DHT22;9030;50.792;8.320;2023-09-19T12:44:47;19.20;99.90
17813;DHT22;9030;50.792;8.320;2023-09-19T12:47:16;19.20;99.90
17813;DHT22;9030;50.792;8.320;2023-09-19T12:50:10;19.00;99.90
17813;DHT22;9030;50.792;8.320;2023-09-19T12:52:44;19.30;99.90
17813;DHT22;9030;50.792;8.320;2023-09-19T12:55:22;19.40;99.90
17813;DHT22;9030;50.792;8.320;2023-09-19T12:57:56;19.30;99.90
17813;DHT22;9030;50.792;8.320;2023-09-19T13:00:36;19.20;99.90
17813;DHT22;9030;50.792;8.320;2023-09-19T13:03:13;18.80;99.90
17813;DHT22;9030;50.792;8.320;2023-09-19T13:05:48;18.60;99.90
17813;DHT22;9030;50.792;8.320;2023-09-19T13:08:23;18.60;99.90
17813;DHT22;9030;50.792;8.320;2023-09-19T13:11:09;18.40;99.90
17813;DHT22;9030;50.792;8.320;2023-09-19T13:13:38;18.40;99.90
17813;DHT22;9030;50.792;8.320;2023-09-19T13:16:07;18.60;99.90
17813;DHT22;9030;50.792;8.320;2023-09-19T13:18:45;18.70;99.90
17813;DHT22;9030;50.792;8.320;2023-09-19T13:21:13;18.50;99.90
17813;DHT22;9030;50.792;8.320;2023-09-19T13:23:50;18.60;99.90
17813;DHT22;9030;50.792;8.320;2023-09-19T13:26:17;18.70;99.90
17813;DHT22;9030;50.792;8.320;2023-09-19T13:28:44;18.70;99.90
17813;DHT22;9030;50.792;8.320;2023-09-19T13:31:12;18.40;99.90
17813;DHT22;9030;50.792;8.320;2023-09-19T13:33:43;18.20;99.90
17813;DHT22;9030;50.792;8.320;2023-09-19T13:36:10;18.20;99.90
17813;DHT22;9030;50.792;8.320;2023-09-19T13:38:38;18.20;99.90
17813;DHT22;9030;50.792;8.320;2023-09-19T13:41:05;18.50;99.90
17813;DHT22;9030;50.792;8.320;2023-09-19T13:43:32;18.70;99.90
17813;DHT22;9030;50.792;8.320;2023-09-19T13:45:58;18.90;99.90
17813;DHT22;9030;50.792;8.320;2023-09-19T13:48:26;19.00;99.90
17813;DHT22;9030;50.792;8.320;2023-09-19T13:50:55;18.90;99.90
17813;DHT22;9030;50.792;8.320;2023-09-19T13:53:22;18.70;99.90
17813;DHT22;9030;50.792;8.320;2023-09-19T13:55:49;18.80;99.90
17813;DHT22;9030;50.792;8.320;2023-09-19T13:58:15;18.90;99.90
17813;DHT22;9030;50.792;8.320;2023-09-19T14:00:42;18.70;99.90
17813;DHT22;9030;50.792;8.320;2023-09-19T14:03:09;18.70;99.90
17813;DHT22;9030;50.792;8.320;2023-09-19T14:05:37;18.80;99.90
17813;DHT22;9030;50.792;8.320;2023-09-19T14:08:05;18.90;99.90
17813;DHT22;9030;50.792;8.320;2023-09-19T14:10:32;19.00;99.90
17813;DHT22;9030;50.792;8.320;2023-09-19T14:12:58;18.90;99.90
17813;DHT22;9030;50.792;8.320;2023-09-19T14:15:25;18.90;99.90
17813;DHT22;9030;50.792;8.320;2023-09-19T14:17:56;18.70;99.90
17813;DHT22;9030;50.792;8.320;2023-09-19T14:20:24;18.80;99.90
17813;DHT22;9030;50.792;8.320;2023-09-19T14:22:53;19.00;99.90
17813;DHT22;9030;50.792;8.320;2023-09-19T14:25:20;19.10;99.90
17813;DHT22;9030;50.792;8.320;2023-09-19T14:27:47;19.00;99.90
17813;DHT22;9030;50.792;8.320;2023-09-19T14:30:14;19.00;99.90
17813;DHT22;9030;50.792;8.320;2023-09-19T14:32:41;18.90;99.90
17813;DHT22;9030;50.792;8.320;2023-09-19T14:35:08;18.80;99.90
17813;DHT22;9030;50.792;8.320;2023-09-19T14:37:36;18.70;99.90
17813;DHT22;9030;50.792;8.320;2023-09-19T14:40:06;18.60;99.90
17813;DHT22;9030;50.792;8.320;2023-09-19T14:42:34;18.40;99.90
17813;DHT22;9030;50.792;8.320;2023-09-19T14:45:04;18.50;99.90
17813;DHT22;9030;50.792;8.320;2023-09-19T14:47:31;18.50;99.90
17813;DHT22;9030;50.792;8.320;2023-09-19T14:49:59;18.40;99.90
17813;DHT22;9030;50.792;8.320;2023-09-19T14:52:26;18.40;99.90
17813;DHT22;9030;50.792;8.320;2023-09-19T14:54:53;18.40;99.90
17813;DHT22;9030;50.792;8.320;2023-09-19T14:57:22;18.60;99.90
17813;DHT22;9030;50.792;8.320;2023-09-19T14:59:50;18.70;99.90
17813;DHT22;9030;50.792;8.320;2023-09-19T15:02:16;18.70;99.90
17813;DHT22;9030;50.792;8.320;2023-09-19T15:04:43;18.70;99.90
17813;DHT22;9030;50.792;8.320;2023-09-19T15:07:12;18.90;99.90
17813;DHT22;9030;50.792;8.320;2023-09-19T15:09:40;18.90;99.90
17813;DHT22;9030;50.792;8.320;2023-09-19T15:12:07;18.90;99.90
17813;DHT22;9030;50.792;8.320;2023-09-19T15:14:35;18.90;99.90
17813;DHT22;9030;50.792;8.320;2023-09-19T15:17:02;18.70;99.90
17813;DHT22;9030;50.792;8.320;2023-09-19T15:19:30;18.50;99.90
17813;DHT22;9030;50.792;8.320;2023-09-19T15:21:56;18.50;99.90
17813;DHT22;9030;50.792;8.320;2023-09-19T15:24:23;18.70;99.90
17813;DHT22;9030;50.792;8.320;2023-09-19T15:26:52;18.50;99.90
17813;DHT22;9030;50.792;8.320;2023-09-19T15:29:21;18.30;99.90
17813;DHT22;9030;50.792;8.320;2023-09-19T15:31:49;18.40;99.90
17813;DHT22;9030;50.792;8.320;2023-09-19T15:34:16;18.40;99.90
17813;DHT22;9030;50.792;8.320;2023-09-19T15:36:42;18.50;99.90
17813;DHT22;9030;50.792;8.320;2023-09-19T15:39:10;18.60;99.90
17813;DHT22;9030;50.792;8.320;2023-09-19T15:41:39;18.70;99.90
17813;DHT22;9030;50.792;8.320;2023-09-19T15:44:11;18.70;99.90
17813;DHT22;9030;50.792;8.320;2023-09-19T15:46:38;18.70;99.90
17813;DHT22;9030;50.792;8.320;2023-09-19T15:49:07;18.70;99.90
17813;DHT22;9030;50.792;8.320;2023-09-19T15:51:34;18.70;99.90
17813;DHT22;9030;50.792;8.320;2023-09-19T15:54:07;18.70;99.90
17813;DHT22;9030;50.792;8.320;2023-09-19T15:56:34;18.70;99.90
17813;DHT22;9030;50.792;8.320;2023-09-19T15:59:01;18.70;99.90
17813;DHT22;9030;50.792;8.320;2023-09-19T16:01:28;18.50;99.90
17813;DHT22;9030;50.792;8.320;2023-09-19T16:03:54;18.40;99.90
17813;DHT22;9030;50.792;8.320;2023-09-19T16:06:24;18.30;99.90
17813;DHT22;9030;50.792;8.320;2023-09-19T16:08:52;18.10;99.90